Pagrindinis puslapis
METAR-TAF:

METAR-TAF

Oro uostai :

Gran Kanarija, Ispanija

platuma: 27-56N, ilguma: 015-23W, Aukštis: 23 m

Dabartinis oras

Ataskaita buvo paskelbta 32 minutes, ne 04:30 UTC
Vėjas 15 kt iš Šiaurės
Temperatūra 22°C
Drėgmė 78%
Slėgis 1015 hPa
Matomumas 10 km arba daugiau
Mažai debesys ne aukštis 2000 ft
Su prošvaistėmis ne aukštis 2200 ft

METAR: GCLP 180430Z 01015KT 9999 FEW020 BKN022 22/18 Q1015 NOSIG

Laikas: 06:02 (05:02 UTC)

Prognozė

Ataskaita buvo paskelbta 3 valandos ir 2 minutes, ne 02:00 UTC
Prognozė galioja nuo 18 metu 03 UTC su 19 metu 03 UTC
Vėjas 15 kt iš Šiaurės
Matomumas 10 km arba daugiau
Išsisklaidę debesys ne aukštis 2000 ft

TAF: GCLP 180200Z 1803/1903 36015KT 9999 SCT020 TX25/1814Z TN21/1805Z

Orai ataskaitas ir orų prognozės (METAR, TAF).

turimą stotys yra geltonos ir raudonos taškus žemėlapyje.

Perkelti pele per norėdami pamatyti stoties vardą.

Tada spustelėkite, norėdami matyti oro stebėjimo ir prognozės.

Norėdami pakeisti žemėlapį: spustelėkite ant žalios mygtukų su juodo kryžiaus žemyn,; žalią mygtuką su brūkšneliu, jei norite nutolinti; arba žalių rodyklių gretimoms žemėlapius.


METAR-TAF: